sensor_id;sensor_type;location;lat;lon;timestamp;temperature;humidity
8105;DHT22;4095;48.942;9.104;2023-03-14T00:02:22;12.80;99.90
8105;DHT22;4095;48.942;9.104;2023-03-14T00:04:48;12.90;99.90
8105;DHT22;4095;48.942;9.104;2023-03-14T00:07:14;12.90;99.90
8105;DHT22;4095;48.942;9.104;2023-03-14T00:09:39;12.90;99.90
8105;DHT22;4095;48.942;9.104;2023-03-14T00:12:06;12.90;99.90
8105;DHT22;4095;48.942;9.104;2023-03-14T00:14:33;13.00;99.90
8105;DHT22;4095;48.942;9.104;2023-03-14T00:16:58;13.00;99.90
8105;DHT22;4095;48.942;9.104;2023-03-14T00:19:24;13.00;99.90
8105;DHT22;4095;48.942;9.104;2023-03-14T00:21:49;13.00;99.90
8105;DHT22;4095;48.942;9.104;2023-03-14T00:24:15;13.00;99.90
8105;DHT22;4095;48.942;9.104;2023-03-14T00:26:40;13.00;99.90
8105;DHT22;4095;48.942;9.104;2023-03-14T00:29:06;13.00;99.90
8105;DHT22;4095;48.942;9.104;2023-03-14T00:31:33;13.10;99.90
8105;DHT22;4095;48.942;9.104;2023-03-14T00:33:58;13.00;99.90
8105;DHT22;4095;48.942;9.104;2023-03-14T00:36:24;13.00;99.90
8105;DHT22;4095;48.942;9.104;2023-03-14T00:38:51;13.00;99.90
8105;DHT22;4095;48.942;9.104;2023-03-14T00:41:19;13.00;99.90
8105;DHT22;4095;48.942;9.104;2023-03-14T00:43:45;13.00;99.90
8105;DHT22;4095;48.942;9.104;2023-03-14T00:46:11;13.00;99.90
8105;DHT22;4095;48.942;9.104;2023-03-14T00:48:37;13.00;99.90
8105;DHT22;4095;48.942;9.104;2023-03-14T00:51:04;13.00;99.90
8105;DHT22;4095;48.942;9.104;2023-03-14T00:53:30;13.00;99.90
8105;DHT22;4095;48.942;9.104;2023-03-14T00:55:56;13.00;99.90
8105;DHT22;4095;48.942;9.104;2023-03-14T00:58:22;13.00;99.90
8105;DHT22;4095;48.942;9.104;2023-03-14T01:00:47;13.00;99.90
8105;DHT22;4095;48.942;9.104;2023-03-14T01:03:14;13.00;99.90
8105;DHT22;4095;48.942;9.104;2023-03-14T01:05:40;13.00;99.90
8105;DHT22;4095;48.942;9.104;2023-03-14T01:08:06;13.00;99.90
8105;DHT22;4095;48.942;9.104;2023-03-14T01:10:33;13.10;99.90
8105;DHT22;4095;48.942;9.104;2023-03-14T01:12:59;13.10;99.90
8105;DHT22;4095;48.942;9.104;2023-03-14T01:15:25;13.10;99.90
8105;DHT22;4095;48.942;9.104;2023-03-14T01:17:50;13.10;99.90
8105;DHT22;4095;48.942;9.104;2023-03-14T01:20:18;13.10;99.90
8105;DHT22;4095;48.942;9.104;2023-03-14T01:22:44;13.10;99.90
8105;DHT22;4095;48.942;9.104;2023-03-14T01:25:13;13.10;99.90
8105;DHT22;4095;48.942;9.104;2023-03-14T01:27:39;13.10;99.90
8105;DHT22;4095;48.942;9.104;2023-03-14T01:30:05;13.10;99.90
8105;DHT22;4095;48.942;9.104;2023-03-14T01:32:31;13.10;99.90
8105;DHT22;4095;48.942;9.104;2023-03-14T01:34:57;13.10;99.90
8105;DHT22;4095;48.942;9.104;2023-03-14T01:37:22;13.10;99.90
8105;DHT22;4095;48.942;9.104;2023-03-14T01:39:48;13.20;99.90
8105;DHT22;4095;48.942;9.104;2023-03-14T01:42:15;13.10;99.90
8105;DHT22;4095;48.942;9.104;2023-03-14T01:44:58;13.20;99.90
8105;DHT22;4095;48.942;9.104;2023-03-14T01:47:24;13.20;99.90
8105;DHT22;4095;48.942;9.104;2023-03-14T01:50:03;13.20;99.90
8105;DHT22;4095;48.942;9.104;2023-03-14T01:52:38;13.10;99.90
8105;DHT22;4095;48.942;9.104;2023-03-14T01:55:18;13.10;99.90
8105;DHT22;4095;48.942;9.104;2023-03-14T01:57:52;13.00;99.90
8105;DHT22;4095;48.942;9.104;2023-03-14T02:00:21;13.00;99.90
8105;DHT22;4095;48.942;9.104;2023-03-14T02:02:52;13.00;99.90
8105;DHT22;4095;48.942;9.104;2023-03-14T02:05:25;13.00;99.90
8105;DHT22;4095;48.942;9.104;2023-03-14T02:07:58;13.00;99.90
8105;DHT22;4095;48.942;9.104;2023-03-14T02:10:30;13.00;99.90
8105;DHT22;4095;48.942;9.104;2023-03-14T02:13:00;13.10;99.90
8105;DHT22;4095;48.942;9.104;2023-03-14T02:15:26;13.00;99.90
8105;DHT22;4095;48.942;9.104;2023-03-14T02:17:52;13.00;99.90
8105;DHT22;4095;48.942;9.104;2023-03-14T02:23:18;13.00;99.90
8105;DHT22;4095;48.942;9.104;2023-03-14T02:25:47;13.10;99.90
8105;DHT22;4095;48.942;9.104;2023-03-14T02:28:14;13.10;99.90
8105;DHT22;4095;48.942;9.104;2023-03-14T02:30:40;13.00;99.90
8105;DHT22;4095;48.942;9.104;2023-03-14T02:33:09;13.00;99.90
8105;DHT22;4095;48.942;9.104;2023-03-14T02:35:56;13.00;99.90
8105;DHT22;4095;48.942;9.104;2023-03-14T02:40:58;13.00;99.90
8105;DHT22;4095;48.942;9.104;2023-03-14T02:43:24;13.10;99.90
8105;DHT22;4095;48.942;9.104;2023-03-14T02:45:50;13.10;99.90
8105;DHT22;4095;48.942;9.104;2023-03-14T02:48:33;13.10;99.90
8105;DHT22;4095;48.942;9.104;2023-03-14T02:51:01;13.00;99.90
8105;DHT22;4095;48.942;9.104;2023-03-14T02:53:32;13.00;99.90
8105;DHT22;4095;48.942;9.104;2023-03-14T02:55:58;13.00;99.90
8105;DHT22;4095;48.942;9.104;2023-03-14T02:58:25;13.00;99.90
8105;DHT22;4095;48.942;9.104;2023-03-14T03:00:51;12.90;99.90
8105;DHT22;4095;48.942;9.104;2023-03-14T03:03:17;12.90;99.90
8105;DHT22;4095;48.942;9.104;2023-03-14T03:05:47;12.90;99.90
8105;DHT22;4095;48.942;9.104;2023-03-14T03:08:12;12.90;99.90
8105;DHT22;4095;48.942;9.104;2023-03-14T03:10:38;12.90;99.90
8105;DHT22;4095;48.942;9.104;2023-03-14T03:13:03;12.90;99.90
8105;DHT22;4095;48.942;9.104;2023-03-14T03:15:29;12.90;99.90
8105;DHT22;4095;48.942;9.104;2023-03-14T03:17:55;12.80;99.90
8105;DHT22;4095;48.942;9.104;2023-03-14T03:20:20;12.90;99.90
8105;DHT22;4095;48.942;9.104;2023-03-14T03:22:46;12.90;99.90
8105;DHT22;4095;48.942;9.104;2023-03-14T03:25:11;12.80;99.90
8105;DHT22;4095;48.942;9.104;2023-03-14T03:27:37;12.90;99.90
8105;DHT22;4095;48.942;9.104;2023-03-14T03:30:05;12.90;99.90
8105;DHT22;4095;48.942;9.104;2023-03-14T03:32:31;12.90;99.90
8105;DHT22;4095;48.942;9.104;2023-03-14T03:34:56;12.90;99.90
8105;DHT22;4095;48.942;9.104;2023-03-14T03:37:22;12.90;99.90
8105;DHT22;4095;48.942;9.104;2023-03-14T03:39:50;12.90;99.90
8105;DHT22;4095;48.942;9.104;2023-03-14T03:42:16;12.80;99.90
8105;DHT22;4095;48.942;9.104;2023-03-14T03:44:41;12.80;99.90
8105;DHT22;4095;48.942;9.104;2023-03-14T03:47:07;12.80;99.90
8105;DHT22;4095;48.942;9.104;2023-03-14T03:49:33;12.90;99.90
8105;DHT22;4095;48.942;9.104;2023-03-14T03:51:59;12.80;99.90
8105;DHT22;4095;48.942;9.104;2023-03-14T03:54:24;12.80;99.90
8105;DHT22;4095;48.942;9.104;2023-03-14T03:56:50;12.80;99.90
8105;DHT22;4095;48.942;9.104;2023-03-14T03:59:16;12.80;99.90
8105;DHT22;4095;48.942;9.104;2023-03-14T04:01:42;12.80;99.90
8105;DHT22;4095;48.942;9.104;2023-03-14T04:04:07;12.80;99.90
8105;DHT22;4095;48.942;9.104;2023-03-14T04:06:33;12.70;99.90
8105;DHT22;4095;48.942;9.104;2023-03-14T04:08:59;12.70;99.90
8105;DHT22;4095;48.942;9.104;2023-03-14T04:11:24;12.60;99.90
8105;DHT22;4095;48.942;9.104;2023-03-14T04:13:50;12.60;99.90
8105;DHT22;4095;48.942;9.104;2023-03-14T04:16:21;12.60;99.90
8105;DHT22;4095;48.942;9.104;2023-03-14T04:18:47;12.70;99.90
8105;DHT22;4095;48.942;9.104;2023-03-14T04:21:13;12.70;99.80
8105;DHT22;4095;48.942;9.104;2023-03-14T04:23:38;12.70;99.80
8105;DHT22;4095;48.942;9.104;2023-03-14T04:26:04;12.60;99.60
8105;DHT22;4095;48.942;9.104;2023-03-14T04:28:30;12.70;99.60
8105;DHT22;4095;48.942;9.104;2023-03-14T04:30:55;12.70;99.60
8105;DHT22;4095;48.942;9.104;2023-03-14T04:33:21;12.70;99.80
8105;DHT22;4095;48.942;9.104;2023-03-14T04:35:47;12.60;99.60
8105;DHT22;4095;48.942;9.104;2023-03-14T04:38:13;12.70;99.50
8105;DHT22;4095;48.942;9.104;2023-03-14T04:40:40;12.60;99.50
8105;DHT22;4095;48.942;9.104;2023-03-14T04:43:07;12.60;99.30
8105;DHT22;4095;48.942;9.104;2023-03-14T04:45:32;12.60;99.50
8105;DHT22;4095;48.942;9.104;2023-03-14T04:47:58;12.50;99.50
8105;DHT22;4095;48.942;9.104;2023-03-14T04:50:23;12.50;99.70
8105;DHT22;4095;48.942;9.104;2023-03-14T04:52:49;12.50;99.50
8105;DHT22;4095;48.942;9.104;2023-03-14T04:55:15;12.50;99.50
8105;DHT22;4095;48.942;9.104;2023-03-14T04:57:40;12.50;99.60
8105;DHT22;4095;48.942;9.104;2023-03-14T05:00:07;12.50;99.60
8105;DHT22;4095;48.942;9.104;2023-03-14T05:02:34;12.50;99.50
8105;DHT22;4095;48.942;9.104;2023-03-14T05:04:59;12.60;99.50
8105;DHT22;4095;48.942;9.104;2023-03-14T05:07:25;12.50;99.40
8105;DHT22;4095;48.942;9.104;2023-03-14T05:09:50;12.50;99.60
8105;DHT22;4095;48.942;9.104;2023-03-14T05:12:18;12.40;99.70
8105;DHT22;4095;48.942;9.104;2023-03-14T05:14:43;12.40;99.70
8105;DHT22;4095;48.942;9.104;2023-03-14T05:17:09;12.30;99.60
8105;DHT22;4095;48.942;9.104;2023-03-14T05:19:35;12.20;99.60
8105;DHT22;4095;48.942;9.104;2023-03-14T05:22:01;12.10;99.70
8105;DHT22;4095;48.942;9.104;2023-03-14T05:24:26;12.10;99.70
8105;DHT22;4095;48.942;9.104;2023-03-14T05:26:52;12.10;99.70
8105;DHT22;4095;48.942;9.104;2023-03-14T05:29:18;12.10;99.70
8105;DHT22;4095;48.942;9.104;2023-03-14T05:31:43;12.10;99.70
8105;DHT22;4095;48.942;9.104;2023-03-14T05:34:09;12.10;99.60
8105;DHT22;4095;48.942;9.104;2023-03-14T05:36:35;12.10;99.80
8105;DHT22;4095;48.942;9.104;2023-03-14T05:39:00;12.00;99.70
8105;DHT22;4095;48.942;9.104;2023-03-14T05:41:26;12.00;99.80
8105;DHT22;4095;48.942;9.104;2023-03-14T05:43:51;12.00;99.70
8105;DHT22;4095;48.942;9.104;2023-03-14T05:46:17;12.00;99.70
8105;DHT22;4095;48.942;9.104;2023-03-14T05:48:43;12.00;99.70
8105;DHT22;4095;48.942;9.104;2023-03-14T05:51:08;12.00;99.80
8105;DHT22;4095;48.942;9.104;2023-03-14T05:53:34;12.00;99.80
8105;DHT22;4095;48.942;9.104;2023-03-14T05:55:59;12.00;99.90
8105;DHT22;4095;48.942;9.104;2023-03-14T05:58:25;12.00;99.80
8105;DHT22;4095;48.942;9.104;2023-03-14T06:00:51;12.00;99.90
8105;DHT22;4095;48.942;9.104;2023-03-14T06:03:17;12.10;99.80
8105;DHT22;4095;48.942;9.104;2023-03-14T06:05:42;12.10;99.60
8105;DHT22;4095;48.942;9.104;2023-03-14T06:08:08;12.10;99.60
8105;DHT22;4095;48.942;9.104;2023-03-14T06:10:35;12.10;99.60
8105;DHT22;4095;48.942;9.104;2023-03-14T06:13:01;12.10;99.60
8105;DHT22;4095;48.942;9.104;2023-03-14T06:15:27;12.20;99.80
8105;DHT22;4095;48.942;9.104;2023-03-14T06:17:54;12.20;99.60
8105;DHT22;4095;48.942;9.104;2023-03-14T06:20:20;12.20;99.40
8105;DHT22;4095;48.942;9.104;2023-03-14T06:22:46;12.20;99.40
8105;DHT22;4095;48.942;9.104;2023-03-14T06:25:12;12.20;99.60
8105;DHT22;4095;48.942;9.104;2023-03-14T06:27:37;12.20;99.60
8105;DHT22;4095;48.942;9.104;2023-03-14T06:30:03;12.20;99.30
8105;DHT22;4095;48.942;9.104;2023-03-14T06:32:29;12.20;99.30
8105;DHT22;4095;48.942;9.104;2023-03-14T06:34:55;12.20;99.30
8105;DHT22;4095;48.942;9.104;2023-03-14T06:37:22;12.20;99.30
8105;DHT22;4095;48.942;9.104;2023-03-14T06:39:48;12.20;99.30
8105;DHT22;4095;48.942;9.104;2023-03-14T06:42:13;12.30;99.40
8105;DHT22;4095;48.942;9.104;2023-03-14T06:44:39;12.30;99.30
8105;DHT22;4095;48.942;9.104;2023-03-14T06:47:04;12.40;99.40
8105;DHT22;4095;48.942;9.104;2023-03-14T06:49:30;12.50;99.50
8105;DHT22;4095;48.942;9.104;2023-03-14T06:51:55;12.50;99.20
8105;DHT22;4095;48.942;9.104;2023-03-14T06:54:21;12.60;99.40
8105;DHT22;4095;48.942;9.104;2023-03-14T06:56:47;12.70;99.40
8105;DHT22;4095;48.942;9.104;2023-03-14T06:59:12;12.80;99.20
8105;DHT22;4095;48.942;9.104;2023-03-14T07:01:38;12.80;99.10
8105;DHT22;4095;48.942;9.104;2023-03-14T07:04:04;12.80;99.20
8105;DHT22;4095;48.942;9.104;2023-03-14T07:06:29;13.00;99.50
8105;DHT22;4095;48.942;9.104;2023-03-14T07:08:55;13.10;99.20
8105;DHT22;4095;48.942;9.104;2023-03-14T07:11:21;13.20;99.10
8105;DHT22;4095;48.942;9.104;2023-03-14T07:13:47;13.20;99.00
8105;DHT22;4095;48.942;9.104;2023-03-14T07:16:13;13.30;98.80
8105;DHT22;4095;48.942;9.104;2023-03-14T07:18:39;13.40;98.50
8105;DHT22;4095;48.942;9.104;2023-03-14T07:21:08;13.50;98.50
8105;DHT22;4095;48.942;9.104;2023-03-14T07:23:37;13.40;98.10
8105;DHT22;4095;48.942;9.104;2023-03-14T07:26:03;13.50;97.90
8105;DHT22;4095;48.942;9.104;2023-03-14T07:28:29;13.50;97.80
8105;DHT22;4095;48.942;9.104;2023-03-14T07:30:55;13.50;97.70
8105;DHT22;4095;48.942;9.104;2023-03-14T07:33:21;13.60;97.70
8105;DHT22;4095;48.942;9.104;2023-03-14T07:35:48;13.60;97.70
8105;DHT22;4095;48.942;9.104;2023-03-14T07:38:14;13.70;97.50
8105;DHT22;4095;48.942;9.104;2023-03-14T07:40:40;13.70;97.70
8105;DHT22;4095;48.942;9.104;2023-03-14T07:43:06;13.80;97.60
8105;DHT22;4095;48.942;9.104;2023-03-14T07:45:32;13.80;97.60
8105;DHT22;4095;48.942;9.104;2023-03-14T07:47:57;13.70;97.30
8105;DHT22;4095;48.942;9.104;2023-03-14T07:50:26;13.80;97.40
8105;DHT22;4095;48.942;9.104;2023-03-14T07:52:51;13.80;97.40
8105;DHT22;4095;48.942;9.104;2023-03-14T07:55:17;13.70;97.30
8105;DHT22;4095;48.942;9.104;2023-03-14T07:57:43;13.70;97.20
8105;DHT22;4095;48.942;9.104;2023-03-14T08:00:09;13.80;97.30
8105;DHT22;4095;48.942;9.104;2023-03-14T08:02:36;14.00;97.30
8105;DHT22;4095;48.942;9.104;2023-03-14T08:05:02;14.10;97.30
8105;DHT22;4095;48.942;9.104;2023-03-14T08:07:28;14.20;97.10
8105;DHT22;4095;48.942;9.104;2023-03-14T08:09:54;14.30;96.90
8105;DHT22;4095;48.942;9.104;2023-03-14T08:12:19;14.30;96.50
8105;DHT22;4095;48.942;9.104;2023-03-14T08:14:45;14.30;96.40
8105;DHT22;4095;48.942;9.104;2023-03-14T08:17:10;14.30;96.30
8105;DHT22;4095;48.942;9.104;2023-03-14T08:19:36;14.30;96.20
8105;DHT22;4095;48.942;9.104;2023-03-14T08:22:02;14.40;96.20
8105;DHT22;4095;48.942;9.104;2023-03-14T08:24:28;14.40;96.10
8105;DHT22;4095;48.942;9.104;2023-03-14T08:26:54;14.60;95.80
8105;DHT22;4095;48.942;9.104;2023-03-14T08:29:19;14.80;95.70
8105;DHT22;4095;48.942;9.104;2023-03-14T08:31:45;14.80;95.40
8105;DHT22;4095;48.942;9.104;2023-03-14T08:34:11;14.90;95.70
8105;DHT22;4095;48.942;9.104;2023-03-14T08:36:36;15.10;94.90
8105;DHT22;4095;48.942;9.104;2023-03-14T08:39:02;15.10;94.90
8105;DHT22;4095;48.942;9.104;2023-03-14T08:41:29;15.00;95.40
8105;DHT22;4095;48.942;9.104;2023-03-14T08:43:55;15.00;95.00
8105;DHT22;4095;48.942;9.104;2023-03-14T08:46:20;14.90;95.20
8105;DHT22;4095;48.942;9.104;2023-03-14T08:48:46;14.80;94.90
8105;DHT22;4095;48.942;9.104;2023-03-14T08:51:13;14.80;95.00
8105;DHT22;4095;48.942;9.104;2023-03-14T08:53:40;14.70;94.30
8105;DHT22;4095;48.942;9.104;2023-03-14T08:56:06;14.70;94.80
8105;DHT22;4095;48.942;9.104;2023-03-14T08:58:33;14.70;94.70
8105;DHT22;4095;48.942;9.104;2023-03-14T09:00:58;14.70;94.40
8105;DHT22;4095;48.942;9.104;2023-03-14T09:03:25;15.00;95.00
8105;DHT22;4095;48.942;9.104;2023-03-14T09:05:51;15.20;94.30
8105;DHT22;4095;48.942;9.104;2023-03-14T09:08:17;15.30;94.20
8105;DHT22;4095;48.942;9.104;2023-03-14T09:10:43;15.20;95.60
8105;DHT22;4095;48.942;9.104;2023-03-14T09:13:08;15.00;95.40
8105;DHT22;4095;48.942;9.104;2023-03-14T09:15:34;14.80;96.00
8105;DHT22;4095;48.942;9.104;2023-03-14T09:17:59;14.60;95.80
8105;DHT22;4095;48.942;9.104;2023-03-14T09:20:25;14.40;95.40
8105;DHT22;4095;48.942;9.104;2023-03-14T09:22:51;14.30;95.80
8105;DHT22;4095;48.942;9.104;2023-03-14T09:25:16;14.20;96.00
8105;DHT22;4095;48.942;9.104;2023-03-14T09:27:42;14.10;96.60
8105;DHT22;4095;48.942;9.104;2023-03-14T09:30:08;14.00;96.70
8105;DHT22;4095;48.942;9.104;2023-03-14T09:32:34;14.00;97.10
8105;DHT22;4095;48.942;9.104;2023-03-14T09:35:00;14.00;97.20
8105;DHT22;4095;48.942;9.104;2023-03-14T09:37:25;14.00;97.50
8105;DHT22;4095;48.942;9.104;2023-03-14T09:39:51;14.00;97.60
8105;DHT22;4095;48.942;9.104;2023-03-14T09:42:19;13.90;97.40
8105;DHT22;4095;48.942;9.104;2023-03-14T09:44:57;14.00;97.70
8105;DHT22;4095;48.942;9.104;2023-03-14T09:47:25;14.00;97.10
8105;DHT22;4095;48.942;9.104;2023-03-14T09:49:51;14.00;96.90
8105;DHT22;4095;48.942;9.104;2023-03-14T09:52:36;14.00;96.80
8105;DHT22;4095;48.942;9.104;2023-03-14T09:57:32;14.00;96.40
8105;DHT22;4095;48.942;9.104;2023-03-14T10:00:14;14.10;96.60
8105;DHT22;4095;48.942;9.104;2023-03-14T10:02:53;14.30;97.10
8105;DHT22;4095;48.942;9.104;2023-03-14T10:05:21;14.50;96.30
8105;DHT22;4095;48.942;9.104;2023-03-14T10:07:47;14.80;96.60
8105;DHT22;4095;48.942;9.104;2023-03-14T10:10:25;15.20;96.00
8105;DHT22;4095;48.942;9.104;2023-03-14T10:15:35;15.90;95.90
8105;DHT22;4095;48.942;9.104;2023-03-14T10:18:03;16.30;95.60
8105;DHT22;4095;48.942;9.104;2023-03-14T10:20:37;16.60;94.60
8105;DHT22;4095;48.942;9.104;2023-03-14T10:23:26;16.90;94.40
8105;DHT22;4095;48.942;9.104;2023-03-14T10:26:11;16.70;93.80
8105;DHT22;4095;48.942;9.104;2023-03-14T10:28:49;16.70;94.40
8105;DHT22;4095;48.942;9.104;2023-03-14T10:31:17;16.50;93.80
8105;DHT22;4095;48.942;9.104;2023-03-14T10:34:00;16.50;93.80
8105;DHT22;4095;48.942;9.104;2023-03-14T10:36:31;16.40;93.60
8105;DHT22;4095;48.942;9.104;2023-03-14T10:41:53;16.70;94.70
8105;DHT22;4095;48.942;9.104;2023-03-14T10:44:22;17.50;93.00
8105;DHT22;4095;48.942;9.104;2023-03-14T10:47:03;18.10;93.40
8105;DHT22;4095;48.942;9.104;2023-03-14T10:49:35;18.60;92.60
8105;DHT22;4095;48.942;9.104;2023-03-14T10:52:12;18.20;92.10
8105;DHT22;4095;48.942;9.104;2023-03-14T10:54:38;17.60;93.40
8105;DHT22;4095;48.942;9.104;2023-03-14T10:57:04;16.90;95.00
8105;DHT22;4095;48.942;9.104;2023-03-14T10:59:40;16.40;96.30
8105;DHT22;4095;48.942;9.104;2023-03-14T11:05:20;15.50;96.70
8105;DHT22;4095;48.942;9.104;2023-03-14T11:07:53;15.10;97.30
8105;DHT22;4095;48.942;9.104;2023-03-14T11:10:32;14.90;98.20
8105;DHT22;4095;48.942;9.104;2023-03-14T11:16:16;14.60;97.90
8105;DHT22;4095;48.942;9.104;2023-03-14T11:28:49;14.30;98.90
8105;DHT22;4095;48.942;9.104;2023-03-14T11:36:51;14.10;99.30
8105;DHT22;4095;48.942;9.104;2023-03-14T11:39:17;14.10;99.90
8105;DHT22;4095;48.942;9.104;2023-03-14T11:41:53;14.00;99.90
8105;DHT22;4095;48.942;9.104;2023-03-14T11:44:24;13.80;99.90
8105;DHT22;4095;48.942;9.104;2023-03-14T11:46:56;13.90;99.90
8105;DHT22;4095;48.942;9.104;2023-03-14T11:49:33;13.90;99.60
8105;DHT22;4095;48.942;9.104;2023-03-14T11:52:09;13.80;99.40
8105;DHT22;4095;48.942;9.104;2023-03-14T11:57:19;13.60;99.50
8105;DHT22;4095;48.942;9.104;2023-03-14T11:59:52;13.60;99.40
8105;DHT22;4095;48.942;9.104;2023-03-14T12:10:51;13.50;98.90
8105;DHT22;4095;48.942;9.104;2023-03-14T12:13:18;13.50;99.00
8105;DHT22;4095;48.942;9.104;2023-03-14T12:15:54;13.50;99.30
8105;DHT22;4095;48.942;9.104;2023-03-14T12:18:28;13.50;99.40
8105;DHT22;4095;48.942;9.104;2023-03-14T12:21:01;13.40;99.90
8105;DHT22;4095;48.942;9.104;2023-03-14T12:23:56;13.30;99.90
8105;DHT22;4095;48.942;9.104;2023-03-14T12:26:26;13.10;99.90
8105;DHT22;4095;48.942;9.104;2023-03-14T12:50:26;11.30;99.90
8105;DHT22;4095;48.942;9.104;2023-03-14T12:55:57;11.40;99.10
8105;DHT22;4095;48.942;9.104;2023-03-14T12:58:31;11.50;98.90
8105;DHT22;4095;48.942;9.104;2023-03-14T13:01:04;11.70;98.30
8105;DHT22;4095;48.942;9.104;2023-03-14T13:03:42;11.80;97.20
8105;DHT22;4095;48.942;9.104;2023-03-14T13:06:10;11.90;96.80
8105;DHT22;4095;48.942;9.104;2023-03-14T13:08:42;12.50;96.60
8105;DHT22;4095;48.942;9.104;2023-03-14T13:11:20;13.60;95.50
8105;DHT22;4095;48.942;9.104;2023-03-14T13:13:57;13.90;93.50
8105;DHT22;4095;48.942;9.104;2023-03-14T13:16:23;13.90;93.10
8105;DHT22;4095;48.942;9.104;2023-03-14T13:18:51;14.30;92.80
8105;DHT22;4095;48.942;9.104;2023-03-14T13:21:27;14.30;90.70
8105;DHT22;4095;48.942;9.104;2023-03-14T13:24:02;14.10;88.50
8105;DHT22;4095;48.942;9.104;2023-03-14T13:26:41;14.10;89.20
8105;DHT22;4095;48.942;9.104;2023-03-14T13:29:17;13.80;86.70
8105;DHT22;4095;48.942;9.104;2023-03-14T13:31:46;13.40;85.30
8105;DHT22;4095;48.942;9.104;2023-03-14T13:34:12;13.00;84.20
8105;DHT22;4095;48.942;9.104;2023-03-14T13:36:38;12.80;84.90
8105;DHT22;4095;48.942;9.104;2023-03-14T13:39:10;12.70;85.20
8105;DHT22;4095;48.942;9.104;2023-03-14T13:41:38;12.60;85.10
8105;DHT22;4095;48.942;9.104;2023-03-14T13:44:13;12.60;86.00
8105;DHT22;4095;48.942;9.104;2023-03-14T13:46:39;12.50;84.20
8105;DHT22;4095;48.942;9.104;2023-03-14T13:49:09;12.50;84.00
8105;DHT22;4095;48.942;9.104;2023-03-14T13:51:39;12.60;85.30
8105;DHT22;4095;48.942;9.104;2023-03-14T13:54:17;12.60;82.40
8105;DHT22;4095;48.942;9.104;2023-03-14T13:56:43;12.40;81.10
8105;DHT22;4095;48.942;9.104;2023-03-14T13:59:29;12.50;81.30
8105;DHT22;4095;48.942;9.104;2023-03-14T14:01:59;12.40;79.80
8105;DHT22;4095;48.942;9.104;2023-03-14T14:04:25;12.40;80.60
8105;DHT22;4095;48.942;9.104;2023-03-14T14:06:56;12.40;78.40
8105;DHT22;4095;48.942;9.104;2023-03-14T14:09:28;12.30;78.80
8105;DHT22;4095;48.942;9.104;2023-03-14T14:11:58;12.20;79.60
8105;DHT22;4095;48.942;9.104;2023-03-14T14:16:57;12.10;80.30
8105;DHT22;4095;48.942;9.104;2023-03-14T14:19:27;12.00;80.10
8105;DHT22;4095;48.942;9.104;2023-03-14T14:21:53;11.90;78.80
8105;DHT22;4095;48.942;9.104;2023-03-14T14:24:21;11.80;78.40
8105;DHT22;4095;48.942;9.104;2023-03-14T14:26:51;11.80;78.90
8105;DHT22;4095;48.942;9.104;2023-03-14T14:29:38;11.90;79.30
8105;DHT22;4095;48.942;9.104;2023-03-14T14:32:12;11.90;79.10
8105;DHT22;4095;48.942;9.104;2023-03-14T14:34:46;11.90;78.60
8105;DHT22;4095;48.942;9.104;2023-03-14T14:37:27;11.90;78.20
8105;DHT22;4095;48.942;9.104;2023-03-14T14:39:59;11.80;77.60
8105;DHT22;4095;48.942;9.104;2023-03-14T14:42:28;11.70;77.60
8105;DHT22;4095;48.942;9.104;2023-03-14T14:44:56;11.70;79.10
8105;DHT22;4095;48.942;9.104;2023-03-14T14:47:24;11.70;79.10
8105;DHT22;4095;48.942;9.104;2023-03-14T14:49:52;11.70;79.40
8105;DHT22;4095;48.942;9.104;2023-03-14T14:52:32;11.80;79.00
8105;DHT22;4095;48.942;9.104;2023-03-14T14:55:00;11.80;79.40
8105;DHT22;4095;48.942;9.104;2023-03-14T14:57:28;11.80;78.80
8105;DHT22;4095;48.942;9.104;2023-03-14T15:00:00;11.90;78.90
8105;DHT22;4095;48.942;9.104;2023-03-14T15:02:31;12.40;80.50
8105;DHT22;4095;48.942;9.104;2023-03-14T15:04:57;12.80;79.20
8105;DHT22;4095;48.942;9.104;2023-03-14T15:07:23;13.10;76.80
8105;DHT22;4095;48.942;9.104;2023-03-14T15:09:48;13.20;77.20
8105;DHT22;4095;48.942;9.104;2023-03-14T15:12:14;13.10;76.70
8105;DHT22;4095;48.942;9.104;2023-03-14T15:14:39;13.00;77.40
8105;DHT22;4095;48.942;9.104;2023-03-14T15:17:10;12.80;76.60
8105;DHT22;4095;48.942;9.104;2023-03-14T15:19:36;12.80;78.00
8105;DHT22;4095;48.942;9.104;2023-03-14T15:22:01;13.10;79.30
8105;DHT22;4095;48.942;9.104;2023-03-14T15:24:27;13.00;77.20
8105;DHT22;4095;48.942;9.104;2023-03-14T15:26:53;12.80;77.00
8105;DHT22;4095;48.942;9.104;2023-03-14T15:29:18;12.50;77.90
8105;DHT22;4095;48.942;9.104;2023-03-14T15:31:44;12.50;77.20
8105;DHT22;4095;48.942;9.104;2023-03-14T15:34:10;12.30;77.10
8105;DHT22;4095;48.942;9.104;2023-03-14T15:36:36;12.10;78.60
8105;DHT22;4095;48.942;9.104;2023-03-14T15:39:04;12.00;78.30
8105;DHT22;4095;48.942;9.104;2023-03-14T15:41:31;12.00;78.80
8105;DHT22;4095;48.942;9.104;2023-03-14T15:43:57;12.00;78.10
8105;DHT22;4095;48.942;9.104;2023-03-14T15:46:23;12.00;79.30
8105;DHT22;4095;48.942;9.104;2023-03-14T15:48:50;11.90;79.00
8105;DHT22;4095;48.942;9.104;2023-03-14T15:51:16;11.80;80.60
8105;DHT22;4095;48.942;9.104;2023-03-14T15:53:42;11.70;80.00
8105;DHT22;4095;48.942;9.104;2023-03-14T15:56:13;11.60;80.20
8105;DHT22;4095;48.942;9.104;2023-03-14T15:58:38;11.60;79.80
8105;DHT22;4095;48.942;9.104;2023-03-14T16:01:05;11.50;80.80
8105;DHT22;4095;48.942;9.104;2023-03-14T16:03:33;11.70;81.10
8105;DHT22;4095;48.942;9.104;2023-03-14T16:05:59;11.80;81.80
8105;DHT22;4095;48.942;9.104;2023-03-14T16:08:25;12.00;81.00
8105;DHT22;4095;48.942;9.104;2023-03-14T16:10:51;11.80;80.60
8105;DHT22;4095;48.942;9.104;2023-03-14T16:13:18;11.80;81.70
8105;DHT22;4095;48.942;9.104;2023-03-14T16:16:02;11.60;81.60
8105;DHT22;4095;48.942;9.104;2023-03-14T16:18:30;11.60;82.30
8105;DHT22;4095;48.942;9.104;2023-03-14T16:20:58;11.50;83.00
8105;DHT22;4095;48.942;9.104;2023-03-14T16:23:25;11.50;83.80
8105;DHT22;4095;48.942;9.104;2023-03-14T16:25:51;11.50;84.00
8105;DHT22;4095;48.942;9.104;2023-03-14T16:28:17;11.50;84.30
8105;DHT22;4095;48.942;9.104;2023-03-14T16:30:42;11.40;84.20
8105;DHT22;4095;48.942;9.104;2023-03-14T16:33:08;11.40;84.20
8105;DHT22;4095;48.942;9.104;2023-03-14T16:35:40;11.40;85.30
8105;DHT22;4095;48.942;9.104;2023-03-14T16:38:06;11.50;86.10
8105;DHT22;4095;48.942;9.104;2023-03-14T16:40:32;11.50;86.60
8105;DHT22;4095;48.942;9.104;2023-03-14T16:42:57;11.50;86.00
8105;DHT22;4095;48.942;9.104;2023-03-14T16:45:23;11.40;86.60
8105;DHT22;4095;48.942;9.104;2023-03-14T16:47:48;11.40;87.20
8105;DHT22;4095;48.942;9.104;2023-03-14T16:50:14;11.30;88.10
8105;DHT22;4095;48.942;9.104;2023-03-14T16:52:40;11.30;88.90
8105;DHT22;4095;48.942;9.104;2023-03-14T16:55:06;11.30;89.60
8105;DHT22;4095;48.942;9.104;2023-03-14T16:57:35;11.30;90.20
8105;DHT22;4095;48.942;9.104;2023-03-14T17:00:00;11.20;89.80
8105;DHT22;4095;48.942;9.104;2023-03-14T17:02:26;11.00;90.00
8105;DHT22;4095;48.942;9.104;2023-03-14T17:04:51;10.90;90.60
8105;DHT22;4095;48.942;9.104;2023-03-14T17:07:17;10.70;90.90
8105;DHT22;4095;48.942;9.104;2023-03-14T17:09:43;10.60;91.20
8105;DHT22;4095;48.942;9.104;2023-03-14T17:12:08;10.50;91.60
8105;DHT22;4095;48.942;9.104;2023-03-14T17:14:34;10.50;91.80
8105;DHT22;4095;48.942;9.104;2023-03-14T17:16:59;10.40;92.10
8105;DHT22;4095;48.942;9.104;2023-03-14T17:19:25;10.30;91.60
8105;DHT22;4095;48.942;9.104;2023-03-14T17:21:51;10.30;91.40